sensor_id;sensor_type;location;lat;lon;timestamp;pressure;altitude;pressure_sealevel;temperature;humidity
5954;BME280;3002;42.642;24.812;2022-11-04T00:02:05;96724.25;;;14.83;76.80
5954;BME280;3002;42.642;24.812;2022-11-04T00:04:34;96710.63;;;14.65;77.42
5954;BME280;3002;42.642;24.812;2022-11-04T00:06:59;96724.69;;;14.54;78.49
5954;BME280;3002;42.642;24.812;2022-11-04T00:09:30;96708.72;;;14.66;78.41
5954;BME280;3002;42.642;24.812;2022-11-04T00:11:56;96727.97;;;14.73;77.75
5954;BME280;3002;42.642;24.812;2022-11-04T00:14:59;96728.03;;;15.04;75.86
5954;BME280;3002;42.642;24.812;2022-11-04T00:17:44;96707.94;;;14.65;77.17
5954;BME280;3002;42.642;24.812;2022-11-04T00:20:11;96718.47;;;14.53;78.34
5954;BME280;3002;42.642;24.812;2022-11-04T00:22:55;96706.22;;;14.69;76.78
5954;BME280;3002;42.642;24.812;2022-11-04T00:25:39;96729.28;;;14.53;78.64
5954;BME280;3002;42.642;24.812;2022-11-04T00:28:23;96715.84;;;14.62;77.68
5954;BME280;3002;42.642;24.812;2022-11-04T00:31:08;96708.53;;;14.26;80.26
5954;BME280;3002;42.642;24.812;2022-11-04T00:33:54;96719.78;;;14.78;77.41
5954;BME280;3002;42.642;24.812;2022-11-04T00:36:22;96700.97;;;14.95;75.08
5954;BME280;3002;42.642;24.812;2022-11-04T00:38:48;96694.31;;;14.48;77.75
5954;BME280;3002;42.642;24.812;2022-11-04T00:41:14;96687.44;;;14.64;76.89
5954;BME280;3002;42.642;24.812;2022-11-04T00:43:53;96705.00;;;14.53;78.12
5954;BME280;3002;42.642;24.812;2022-11-04T00:46:19;96719.38;;;14.49;79.51
5954;BME280;3002;42.642;24.812;2022-11-04T00:48:44;96714.97;;;14.75;77.24
5954;BME280;3002;42.642;24.812;2022-11-04T00:51:10;96690.69;;;14.53;78.45
5954;BME280;3002;42.642;24.812;2022-11-04T00:53:35;96675.75;;;14.33;79.46
5954;BME280;3002;42.642;24.812;2022-11-04T00:56:01;96683.28;;;14.44;79.38
5954;BME280;3002;42.642;24.812;2022-11-04T00:58:30;96701.09;;;14.90;77.29
5954;BME280;3002;42.642;24.812;2022-11-04T01:00:55;96665.97;;;14.59;77.73
5954;BME280;3002;42.642;24.812;2022-11-04T01:03:20;96666.13;;;14.40;79.24
5954;BME280;3002;42.642;24.812;2022-11-04T01:05:46;96682.81;;;14.42;80.30
5954;BME280;3002;42.642;24.812;2022-11-04T01:08:11;96696.31;;;14.42;81.67
5954;BME280;3002;42.642;24.812;2022-11-04T01:10:42;96705.00;;;14.53;81.56
5954;BME280;3002;42.642;24.812;2022-11-04T01:13:21;96700.56;;;14.80;79.46
5954;BME280;3002;42.642;24.812;2022-11-04T01:15:46;96686.78;;;14.45;81.83
5954;BME280;3002;42.642;24.812;2022-11-04T01:18:12;96663.47;;;14.27;82.21
5954;BME280;3002;42.642;24.812;2022-11-04T01:20:37;96681.66;;;14.35;81.98
5954;BME280;3002;42.642;24.812;2022-11-04T01:23:03;96663.34;;;14.32;81.79
5954;BME280;3002;42.642;24.812;2022-11-04T01:25:28;96656.44;;;14.17;83.00
5954;BME280;3002;42.642;24.812;2022-11-04T01:27:54;96677.09;;;14.58;81.19
5954;BME280;3002;42.642;24.812;2022-11-04T01:30:19;96651.06;;;14.62;80.43
5954;BME280;3002;42.642;24.812;2022-11-04T01:32:45;96695.34;;;14.83;80.68
5954;BME280;3002;42.642;24.812;2022-11-04T01:35:10;96653.50;;;14.72;79.52
5954;BME280;3002;42.642;24.812;2022-11-04T01:37:36;96649.69;;;14.73;79.60
5954;BME280;3002;42.642;24.812;2022-11-04T01:40:02;96667.75;;;14.64;82.37
5954;BME280;3002;42.642;24.812;2022-11-04T01:42:27;96661.81;;;14.53;82.71
5954;BME280;3002;42.642;24.812;2022-11-04T01:44:57;96660.13;;;14.88;80.91
5954;BME280;3002;42.642;24.812;2022-11-04T01:47:31;96676.13;;;15.16;79.67
5954;BME280;3002;42.642;24.812;2022-11-04T01:50:06;96678.03;;;15.15;80.03
5954;BME280;3002;42.642;24.812;2022-11-04T01:55:34;96650.84;;;14.81;80.77
5954;BME280;3002;42.642;24.812;2022-11-04T01:58:04;96663.53;;;15.03;81.06
5954;BME280;3002;42.642;24.812;2022-11-04T02:00:30;96645.81;;;14.88;79.96
5954;BME280;3002;42.642;24.812;2022-11-04T02:05:24;96669.44;;;15.13;79.38
5954;BME280;3002;42.642;24.812;2022-11-04T02:07:54;96677.06;;;15.11;80.37
5954;BME280;3002;42.642;24.812;2022-11-04T02:10:23;96640.63;;;14.69;81.78
5954;BME280;3002;42.642;24.812;2022-11-04T02:12:50;96639.78;;;14.60;82.53
5954;BME280;3002;42.642;24.812;2022-11-04T02:26:53;96658.13;;;14.49;84.34
5954;BME280;3002;42.642;24.812;2022-11-04T02:35:41;96659.13;;;14.17;86.53
5954;BME280;3002;42.642;24.812;2022-11-04T02:48:47;96657.25;;;13.68;88.68
5954;BME280;3002;42.642;24.812;2022-11-04T02:51:25;96636.66;;;13.72;86.78
5954;BME280;3002;42.642;24.812;2022-11-04T02:54:05;96655.34;;;13.82;86.49
5954;BME280;3002;42.642;24.812;2022-11-04T02:56:35;96631.06;;;13.82;84.75
5954;BME280;3002;42.642;24.812;2022-11-04T02:59:10;96641.59;;;14.06;83.43
5954;BME280;3002;42.642;24.812;2022-11-04T03:01:40;96653.44;;;13.82;85.86
5954;BME280;3002;42.642;24.812;2022-11-04T03:04:13;96640.56;;;13.65;86.40
5954;BME280;3002;42.642;24.812;2022-11-04T03:06:41;96647.66;;;13.75;86.06
5954;BME280;3002;42.642;24.812;2022-11-04T03:09:10;96622.81;;;13.64;85.06
5954;BME280;3002;42.642;24.812;2022-11-04T03:11:40;96656.56;;;13.62;86.93
5954;BME280;3002;42.642;24.812;2022-11-04T03:14:13;96619.28;;;13.28;88.22
5954;BME280;3002;42.642;24.812;2022-11-04T03:16:49;96646.91;;;13.33;88.82
5954;BME280;3002;42.642;24.812;2022-11-04T03:19:33;96648.81;;;13.33;90.58
5954;BME280;3002;42.642;24.812;2022-11-04T03:22:05;96649.91;;;13.32;90.63
5954;BME280;3002;42.642;24.812;2022-11-04T03:24:33;96656.84;;;13.19;90.39
5954;BME280;3002;42.642;24.812;2022-11-04T03:27:11;96629.59;;;13.07;91.42
5954;BME280;3002;42.642;24.812;2022-11-04T03:29:48;96637.72;;;13.34;89.53
5954;BME280;3002;42.642;24.812;2022-11-04T03:35:01;96645.59;;;13.58;85.95
5954;BME280;3002;42.642;24.812;2022-11-04T03:37:27;96618.88;;;13.34;86.70
5954;BME280;3002;42.642;24.812;2022-11-04T03:39:53;96614.38;;;13.30;87.19
5954;BME280;3002;42.642;24.812;2022-11-04T03:42:19;96644.38;;;13.37;88.46
5954;BME280;3002;42.642;24.812;2022-11-04T03:44:54;96611.94;;;13.01;90.79
5954;BME280;3002;42.642;24.812;2022-11-04T03:47:24;96634.31;;;13.15;91.90
5954;BME280;3002;42.642;24.812;2022-11-04T03:50:00;96635.03;;;13.34;89.93
5954;BME280;3002;42.642;24.812;2022-11-04T03:52:26;96605.72;;;13.33;87.28
5954;BME280;3002;42.642;24.812;2022-11-04T03:54:52;96606.59;;;13.28;87.15
5954;BME280;3002;42.642;24.812;2022-11-04T04:05:20;96615.88;;;13.08;91.14
5954;BME280;3002;42.642;24.812;2022-11-04T04:07:51;96587.94;;;12.91;91.42
5954;BME280;3002;42.642;24.812;2022-11-04T04:16:09;96634.41;;;13.10;92.05
5954;BME280;3002;42.642;24.812;2022-11-04T04:18:41;96635.03;;;13.21;91.48
5954;BME280;3002;42.642;24.812;2022-11-04T04:21:10;96637.44;;;12.62;95.80
5954;BME280;3002;42.642;24.812;2022-11-04T04:23:39;96637.75;;;12.88;94.33
5954;BME280;3002;42.642;24.812;2022-11-04T04:26:25;96614.63;;;12.73;94.39
5954;BME280;3002;42.642;24.812;2022-11-04T04:29:09;96606.16;;;12.80;93.50
5954;BME280;3002;42.642;24.812;2022-11-04T04:31:37;96627.41;;;12.81;94.74
5954;BME280;3002;42.642;24.812;2022-11-04T04:34:31;96622.63;;;13.06;92.77
5954;BME280;3002;42.642;24.812;2022-11-04T04:39:33;96630.50;;;12.89;95.12
5954;BME280;3002;42.642;24.812;2022-11-04T04:42:19;96628.19;;;12.82;94.88
5954;BME280;3002;42.642;24.812;2022-11-04T04:45:04;96638.56;;;12.89;93.89
5954;BME280;3002;42.642;24.812;2022-11-04T04:47:44;96638.16;;;12.68;95.54
5954;BME280;3002;42.642;24.812;2022-11-04T04:50:18;96603.41;;;12.52;95.65
5954;BME280;3002;42.642;24.812;2022-11-04T04:52:47;96635.63;;;12.57;97.45
5954;BME280;3002;42.642;24.812;2022-11-04T04:55:14;96632.50;;;12.50;96.99
5954;BME280;3002;42.642;24.812;2022-11-04T04:57:41;96629.66;;;12.61;96.42
5954;BME280;3002;42.642;24.812;2022-11-04T05:00:07;96637.22;;;12.58;96.22
5954;BME280;3002;42.642;24.812;2022-11-04T05:02:34;96618.44;;;12.72;94.09
5954;BME280;3002;42.642;24.812;2022-11-04T05:05:00;96622.97;;;12.58;96.08
5954;BME280;3002;42.642;24.812;2022-11-04T05:07:27;96614.69;;;12.54;96.78
5954;BME280;3002;42.642;24.812;2022-11-04T05:09:53;96634.81;;;12.57;98.62
5954;BME280;3002;42.642;24.812;2022-11-04T05:12:18;96639.31;;;12.62;98.67
5954;BME280;3002;42.642;24.812;2022-11-04T05:14:52;96616.63;;;12.68;98.60
5954;BME280;3002;42.642;24.812;2022-11-04T05:17:18;96623.81;;;12.72;98.49
5954;BME280;3002;42.642;24.812;2022-11-04T05:19:44;96645.13;;;12.82;97.69
5954;BME280;3002;42.642;24.812;2022-11-04T05:22:09;96641.56;;;13.01;95.49
5954;BME280;3002;42.642;24.812;2022-11-04T05:24:35;96623.44;;;13.06;92.15
5954;BME280;3002;42.642;24.812;2022-11-04T05:27:03;96635.53;;;13.36;90.62
5954;BME280;3002;42.642;24.812;2022-11-04T05:29:29;96611.78;;;12.97;92.48
5954;BME280;3002;42.642;24.812;2022-11-04T05:31:54;96637.44;;;13.22;91.99
5954;BME280;3002;42.642;24.812;2022-11-04T05:34:21;96651.28;;;13.29;91.94
5954;BME280;3002;42.642;24.812;2022-11-04T05:36:46;96659.78;;;13.50;90.60
5954;BME280;3002;42.642;24.812;2022-11-04T05:39:13;96652.78;;;13.63;89.26
5954;BME280;3002;42.642;24.812;2022-11-04T05:41:39;96646.56;;;13.76;87.18
5954;BME280;3002;42.642;24.812;2022-11-04T05:44:05;96650.03;;;14.49;82.47
5954;BME280;3002;42.642;24.812;2022-11-04T05:46:32;96659.34;;;14.96;80.10
5954;BME280;3002;42.642;24.812;2022-11-04T05:48:58;96652.22;;;15.97;73.05
5954;BME280;3002;42.642;24.812;2022-11-04T05:51:26;96668.63;;;17.26;66.98
5954;BME280;3002;42.642;24.812;2022-11-04T05:53:51;96636.69;;;17.70;63.13
5954;BME280;3002;42.642;24.812;2022-11-04T05:56:17;96656.78;;;18.61;60.21
5954;BME280;3002;42.642;24.812;2022-11-04T05:58:43;96658.22;;;18.58;59.43
5954;BME280;3002;42.642;24.812;2022-11-04T06:03:50;96653.91;;;20.49;54.15
5954;BME280;3002;42.642;24.812;2022-11-04T06:06:15;96672.84;;;20.05;54.83
5954;BME280;3002;42.642;24.812;2022-11-04T06:08:41;96674.66;;;19.89;54.50
5954;BME280;3002;42.642;24.812;2022-11-04T06:11:06;96682.47;;;20.15;53.47
5954;BME280;3002;42.642;24.812;2022-11-04T06:13:32;96687.63;;;19.10;54.93
5954;BME280;3002;42.642;24.812;2022-11-04T06:15:57;96671.84;;;20.38;52.38
5954;BME280;3002;42.642;24.812;2022-11-04T06:18:23;96663.41;;;20.15;52.96
5954;BME280;3002;42.642;24.812;2022-11-04T06:20:48;96696.59;;;20.45;52.37
5954;BME280;3002;42.642;24.812;2022-11-04T06:23:14;96671.44;;;21.36;50.36
5954;BME280;3002;42.642;24.812;2022-11-04T06:25:40;96667.88;;;20.36;51.77
5954;BME280;3002;42.642;24.812;2022-11-04T06:28:06;96695.22;;;20.39;51.12
5954;BME280;3002;42.642;24.812;2022-11-04T06:30:31;96664.44;;;20.39;51.81
5954;BME280;3002;42.642;24.812;2022-11-04T06:32:57;96668.28;;;20.10;51.89
5954;BME280;3002;42.642;24.812;2022-11-04T06:35:22;96656.81;;;20.56;52.07
5954;BME280;3002;42.642;24.812;2022-11-04T06:37:47;96679.66;;;21.87;48.74
5954;BME280;3002;42.642;24.812;2022-11-04T06:40:13;96655.06;;;22.38;46.86
5954;BME280;3002;42.642;24.812;2022-11-04T06:42:38;96664.88;;;23.01;45.94
5954;BME280;3002;42.642;24.812;2022-11-04T06:45:04;96682.81;;;23.40;45.36
5954;BME280;3002;42.642;24.812;2022-11-04T06:47:30;96679.75;;;23.45;45.05
5954;BME280;3002;42.642;24.812;2022-11-04T06:49:57;96675.59;;;23.55;44.66
5954;BME280;3002;42.642;24.812;2022-11-04T06:52:24;96701.13;;;23.82;43.86
5954;BME280;3002;42.642;24.812;2022-11-04T06:54:50;96699.59;;;24.11;43.81
5954;BME280;3002;42.642;24.812;2022-11-04T06:57:15;96694.16;;;24.71;42.06
5954;BME280;3002;42.642;24.812;2022-11-04T06:59:41;96683.66;;;24.20;42.57
5954;BME280;3002;42.642;24.812;2022-11-04T07:02:09;96700.59;;;24.26;43.04
5954;BME280;3002;42.642;24.812;2022-11-04T07:04:36;96675.59;;;24.31;43.04
5954;BME280;3002;42.642;24.812;2022-11-04T07:07:01;96701.66;;;24.44;42.22
5954;BME280;3002;42.642;24.812;2022-11-04T07:09:27;96668.91;;;23.07;45.01
5954;BME280;3002;42.642;24.812;2022-11-04T07:11:53;96686.13;;;23.30;45.24
5954;BME280;3002;42.642;24.812;2022-11-04T07:14:18;96672.69;;;23.44;44.31
5954;BME280;3002;42.642;24.812;2022-11-04T07:16:43;96662.56;;;23.22;45.10
5954;BME280;3002;42.642;24.812;2022-11-04T07:19:09;96667.41;;;24.65;43.14
5954;BME280;3002;42.642;24.812;2022-11-04T07:21:34;96654.22;;;25.07;40.89
5954;BME280;3002;42.642;24.812;2022-11-04T07:24:00;96635.59;;;23.01;44.82
5954;BME280;3002;42.642;24.812;2022-11-04T07:26:26;96635.16;;;24.88;42.07
5954;BME280;3002;42.642;24.812;2022-11-04T07:28:52;96632.63;;;24.69;41.08
5954;BME280;3002;42.642;24.812;2022-11-04T07:31:17;96658.16;;;24.16;42.64
5954;BME280;3002;42.642;24.812;2022-11-04T07:33:43;96672.72;;;26.06;39.72
5954;BME280;3002;42.642;24.812;2022-11-04T07:36:14;96645.88;;;25.38;39.96
5954;BME280;3002;42.642;24.812;2022-11-04T07:38:41;96641.75;;;25.14;40.57
5954;BME280;3002;42.642;24.812;2022-11-04T07:41:06;96654.91;;;22.69;44.79
5954;BME280;3002;42.642;24.812;2022-11-04T07:43:33;96643.19;;;20.16;51.36
5954;BME280;3002;42.642;24.812;2022-11-04T07:46:05;96625.56;;;23.32;44.84
5954;BME280;3002;42.642;24.812;2022-11-04T07:48:31;96625.44;;;23.24;44.80
5954;BME280;3002;42.642;24.812;2022-11-04T07:50:59;96647.13;;;25.92;40.00
5954;BME280;3002;42.642;24.812;2022-11-04T07:53:26;96609.50;;;25.51;39.81
5954;BME280;3002;42.642;24.812;2022-11-04T07:55:53;96641.22;;;25.04;41.25
5954;BME280;3002;42.642;24.812;2022-11-04T07:58:19;96609.09;;;22.63;45.61
5954;BME280;3002;42.642;24.812;2022-11-04T08:01:00;96640.88;;;23.59;45.48
5954;BME280;3002;42.642;24.812;2022-11-04T08:03:27;96620.88;;;25.53;40.16
5954;BME280;3002;42.642;24.812;2022-11-04T08:05:59;96619.59;;;25.88;39.92
5954;BME280;3002;42.642;24.812;2022-11-04T08:08:29;96628.41;;;23.39;43.87
5954;BME280;3002;42.642;24.812;2022-11-04T08:10:58;96604.34;;;23.25;45.69
5954;BME280;3002;42.642;24.812;2022-11-04T08:13:28;96627.44;;;24.97;41.83
5954;BME280;3002;42.642;24.812;2022-11-04T08:16:01;96640.97;;;26.16;39.53
5954;BME280;3002;42.642;24.812;2022-11-04T08:18:27;96607.28;;;26.33;39.25
5954;BME280;3002;42.642;24.812;2022-11-04T08:20:53;96608.13;;;26.45;38.76
5954;BME280;3002;42.642;24.812;2022-11-04T08:23:19;96617.97;;;24.54;41.79
5954;BME280;3002;42.642;24.812;2022-11-04T08:25:45;96597.44;;;25.67;39.85
5954;BME280;3002;42.642;24.812;2022-11-04T08:28:11;96618.81;;;26.67;38.07
5954;BME280;3002;42.642;24.812;2022-11-04T08:30:57;96576.88;;;27.42;36.65
5954;BME280;3002;42.642;24.812;2022-11-04T08:33:24;96609.34;;;24.89;40.66
5954;BME280;3002;42.642;24.812;2022-11-04T08:35:51;96562.03;;;22.73;45.25
5954;BME280;3002;42.642;24.812;2022-11-04T08:38:16;96571.50;;;24.68;42.39
5954;BME280;3002;42.642;24.812;2022-11-04T08:40:43;96595.91;;;26.35;37.96
5954;BME280;3002;42.642;24.812;2022-11-04T08:43:09;96555.16;;;26.73;37.68
5954;BME280;3002;42.642;24.812;2022-11-04T08:45:43;96568.66;;;25.46;39.83
5954;BME280;3002;42.642;24.812;2022-11-04T08:48:10;96568.84;;;25.71;39.20
5954;BME280;3002;42.642;24.812;2022-11-04T08:50:36;96547.38;;;27.14;36.85
5954;BME280;3002;42.642;24.812;2022-11-04T08:53:07;96561.16;;;25.95;38.69
5954;BME280;3002;42.642;24.812;2022-11-04T08:55:33;96576.09;;;27.20;36.82
5954;BME280;3002;42.642;24.812;2022-11-04T08:57:59;96554.75;;;26.74;37.44
5954;BME280;3002;42.642;24.812;2022-11-04T09:00:26;96541.56;;;25.41;38.87
5954;BME280;3002;42.642;24.812;2022-11-04T09:02:53;96549.22;;;24.73;41.06
5954;BME280;3002;42.642;24.812;2022-11-04T09:05:20;96544.19;;;27.51;36.59
5954;BME280;3002;42.642;24.812;2022-11-04T09:07:45;96545.09;;;28.53;34.82
5954;BME280;3002;42.642;24.812;2022-11-04T09:10:11;96534.50;;;28.41;35.14
5954;BME280;3002;42.642;24.812;2022-11-04T09:12:36;96525.66;;;27.84;35.10
5954;BME280;3002;42.642;24.812;2022-11-04T09:18:24;96542.66;;;27.36;36.54
5954;BME280;3002;42.642;24.812;2022-11-04T09:20:49;96514.28;;;26.85;36.75
5954;BME280;3002;42.642;24.812;2022-11-04T09:23:15;96538.91;;;26.28;38.26
5954;BME280;3002;42.642;24.812;2022-11-04T09:25:40;96524.13;;;27.51;35.76
5954;BME280;3002;42.642;24.812;2022-11-04T09:28:06;96500.97;;;27.12;37.06
5954;BME280;3002;42.642;24.812;2022-11-04T09:30:32;96540.47;;;26.26;38.55
5954;BME280;3002;42.642;24.812;2022-11-04T09:32:57;96489.97;;;27.12;36.94
5954;BME280;3002;42.642;24.812;2022-11-04T09:35:23;96523.38;;;27.43;36.36
5954;BME280;3002;42.642;24.812;2022-11-04T09:37:49;96492.19;;;27.82;35.53
5954;BME280;3002;42.642;24.812;2022-11-04T09:40:17;96486.00;;;26.71;36.78
5954;BME280;3002;42.642;24.812;2022-11-04T09:42:46;96520.63;;;27.11;36.78
5954;BME280;3002;42.642;24.812;2022-11-04T09:45:18;96510.00;;;27.41;36.65
5954;BME280;3002;42.642;24.812;2022-11-04T09:47:48;96484.91;;;28.34;34.70
5954;BME280;3002;42.642;24.812;2022-11-04T09:51:05;96484.50;;;28.95;34.66
5954;BME280;3002;42.642;24.812;2022-11-04T09:53:45;96461.13;;;26.17;37.77
5954;BME280;3002;42.642;24.812;2022-11-04T09:56:52;96468.03;;;25.79;38.61
5954;BME280;3002;42.642;24.812;2022-11-04T09:59:24;96484.44;;;27.05;36.77
5954;BME280;3002;42.642;24.812;2022-11-04T10:02:05;96470.94;;;25.31;38.84
5954;BME280;3002;42.642;24.812;2022-11-04T10:24:28;96430.47;;;28.42;34.43
5954;BME280;3002;42.642;24.812;2022-11-04T10:27:03;96434.81;;;29.36;33.40
5954;BME280;3002;42.642;24.812;2022-11-04T10:29:40;96427.81;;;27.18;36.44
5954;BME280;3002;42.642;24.812;2022-11-04T10:32:20;96417.50;;;28.87;33.90
5954;BME280;3002;42.642;24.812;2022-11-04T10:34:56;96421.28;;;30.10;32.66
5954;BME280;3002;42.642;24.812;2022-11-04T10:37:24;96417.03;;;30.86;30.88
5954;BME280;3002;42.642;24.812;2022-11-04T10:39:54;96415.66;;;30.48;31.03
5954;BME280;3002;42.642;24.812;2022-11-04T10:42:23;96410.53;;;29.89;32.09
5954;BME280;3002;42.642;24.812;2022-11-04T10:44:49;96407.44;;;28.00;33.86
5954;BME280;3002;42.642;24.812;2022-11-04T10:47:40;96399.97;;;28.00;35.23
5954;BME280;3002;42.642;24.812;2022-11-04T10:52:37;96384.59;;;28.62;34.15
5954;BME280;3002;42.642;24.812;2022-11-04T10:55:24;96390.13;;;30.36;32.29
5954;BME280;3002;42.642;24.812;2022-11-04T10:57:55;96387.59;;;30.46;32.07
5954;BME280;3002;42.642;24.812;2022-11-04T11:00:34;96389.00;;;29.01;33.33
5954;BME280;3002;42.642;24.812;2022-11-04T11:03:00;96379.09;;;26.55;37.30
5954;BME280;3002;42.642;24.812;2022-11-04T11:05:26;96375.31;;;25.54;38.57
5954;BME280;3002;42.642;24.812;2022-11-04T11:07:55;96368.41;;;25.89;38.43
5954;BME280;3002;42.642;24.812;2022-11-04T11:10:31;96363.25;;;27.37;36.37
5954;BME280;3002;42.642;24.812;2022-11-04T11:12:59;96324.41;;;27.94;35.33
5954;BME280;3002;42.642;24.812;2022-11-04T11:15:36;96356.31;;;29.33;33.55
5954;BME280;3002;42.642;24.812;2022-11-04T11:18:14;96322.50;;;30.14;32.41
5954;BME280;3002;42.642;24.812;2022-11-04T11:20:45;96350.28;;;29.08;33.48
5954;BME280;3002;42.642;24.812;2022-11-04T11:23:32;96349.81;;;29.47;32.99
5954;BME280;3002;42.642;24.812;2022-11-04T11:25:58;96336.63;;;28.90;33.41
5954;BME280;3002;42.642;24.812;2022-11-04T11:28:25;96307.84;;;28.91;33.07
5954;BME280;3002;42.642;24.812;2022-11-04T11:30:57;96337.97;;;27.60;35.45
5954;BME280;3002;42.642;24.812;2022-11-04T11:34:01;96326.28;;;25.49;38.84
5954;BME280;3002;42.642;24.812;2022-11-04T11:36:32;96320.13;;;26.84;37.01
5954;BME280;3002;42.642;24.812;2022-11-04T11:44:52;96327.78;;;29.10;33.77
5954;BME280;3002;42.642;24.812;2022-11-04T11:47:21;96325.22;;;29.60;33.01
5954;BME280;3002;42.642;24.812;2022-11-04T11:50:16;96322.34;;;31.15;31.31
5954;BME280;3002;42.642;24.812;2022-11-04T11:52:46;96306.34;;;30.59;30.74
5954;BME280;3002;42.642;24.812;2022-11-04T11:55:29;96315.47;;;28.35;34.37
5954;BME280;3002;42.642;24.812;2022-11-04T11:58:18;96300.91;;;26.66;36.68
5954;BME280;3002;42.642;24.812;2022-11-04T12:01:00;96289.81;;;25.56;38.82
5954;BME280;3002;42.642;24.812;2022-11-04T12:03:38;96289.00;;;24.61;40.73
5954;BME280;3002;42.642;24.812;2022-11-04T12:09:44;96284.81;;;26.08;38.59
5954;BME280;3002;42.642;24.812;2022-11-04T12:15:00;96282.47;;;28.17;35.39
5954;BME280;3002;42.642;24.812;2022-11-04T12:22:54;96272.03;;;30.06;32.45
5954;BME280;3002;42.642;24.812;2022-11-04T12:25:33;96240.75;;;30.80;31.09
5954;BME280;3002;42.642;24.812;2022-11-04T12:33:34;96248.69;;;30.78;31.38
5954;BME280;3002;42.642;24.812;2022-11-04T12:36:19;96243.88;;;29.88;33.28
5954;BME280;3002;42.642;24.812;2022-11-04T12:39:10;96244.75;;;29.54;33.49
5954;BME280;3002;42.642;24.812;2022-11-04T12:45:27;96233.50;;;29.38;32.96
5954;BME280;3002;42.642;24.812;2022-11-04T12:47:59;96242.56;;;31.06;31.13
5954;BME280;3002;42.642;24.812;2022-11-04T12:56:18;96248.69;;;25.88;38.41
5954;BME280;3002;42.642;24.812;2022-11-04T12:59:11;96244.34;;;26.37;39.18
5954;BME280;3002;42.642;24.812;2022-11-04T13:04:13;96235.09;;;28.33;35.75
5954;BME280;3002;42.642;24.812;2022-11-04T13:06:54;96225.44;;;27.55;35.87
5954;BME280;3002;42.642;24.812;2022-11-04T13:09:36;96234.69;;;28.35;35.58
5954;BME280;3002;42.642;24.812;2022-11-04T13:12:39;96229.25;;;27.02;37.11
5954;BME280;3002;42.642;24.812;2022-11-04T13:15:22;96198.50;;;27.81;35.38
5954;BME280;3002;42.642;24.812;2022-11-04T13:17:51;96225.63;;;29.67;33.45
5954;BME280;3002;42.642;24.812;2022-11-04T13:22:52;96234.56;;;25.89;38.97
5954;BME280;3002;42.642;24.812;2022-11-04T13:25:35;96192.25;;;24.61;41.85
5954;BME280;3002;42.642;24.812;2022-11-04T13:28:08;96211.13;;;24.80;41.82
5954;BME280;3002;42.642;24.812;2022-11-04T13:30:39;96233.75;;;27.48;37.60
5954;BME280;3002;42.642;24.812;2022-11-04T13:33:53;96225.91;;;26.20;39.83
5954;BME280;3002;42.642;24.812;2022-11-04T13:39:14;96231.38;;;26.27;39.25
5954;BME280;3002;42.642;24.812;2022-11-04T13:44:50;96221.19;;;23.96;44.10
5954;BME280;3002;42.642;24.812;2022-11-04T13:47:23;96229.22;;;22.40;48.64
5954;BME280;3002;42.642;24.812;2022-11-04T13:49:52;96225.94;;;23.21;47.08
5954;BME280;3002;42.642;24.812;2022-11-04T13:52:24;96201.47;;;23.76;45.63
5954;BME280;3002;42.642;24.812;2022-11-04T13:54:55;96195.78;;;22.50;48.27
5954;BME280;3002;42.642;24.812;2022-11-04T13:57:29;96193.06;;;22.20;49.91
5954;BME280;3002;42.642;24.812;2022-11-04T14:16:11;96240.94;;;20.83;56.81
5954;BME280;3002;42.642;24.812;2022-11-04T14:18:43;96226.41;;;21.18;55.39
5954;BME280;3002;42.642;24.812;2022-11-04T14:21:12;96230.22;;;21.56;54.81
5954;BME280;3002;42.642;24.812;2022-11-04T14:23:52;96209.50;;;20.90;56.15
5954;BME280;3002;42.642;24.812;2022-11-04T14:26:22;96230.59;;;20.93;56.88
5954;BME280;3002;42.642;24.812;2022-11-04T14:29:47;96206.06;;;20.54;57.94
5954;BME280;3002;42.642;24.812;2022-11-04T14:32:05;96229.69;;;20.15;60.10
5954;BME280;3002;42.642;24.812;2022-11-04T14:34:36;96205.19;;;19.64;60.43
5954;BME280;3002;42.642;24.812;2022-11-04T14:37:23;96225.16;;;20.38;59.63
5954;BME280;3002;42.642;24.812;2022-11-04T14:40:04;96233.13;;;20.82;58.47
5954;BME280;3002;42.642;24.812;2022-11-04T14:42:45;96227.38;;;21.06;57.91
5954;BME280;3002;42.642;24.812;2022-11-04T14:45:21;96218.22;;;20.05;60.59
5954;BME280;3002;42.642;24.812;2022-11-04T14:47:55;96225.84;;;20.16;61.24
5954;BME280;3002;42.642;24.812;2022-11-04T14:50:41;96218.69;;;19.76;63.26
5954;BME280;3002;42.642;24.812;2022-11-04T14:53:16;96222.03;;;19.85;62.89
5954;BME280;3002;42.642;24.812;2022-11-04T14:56:06;96209.91;;;19.67;63.48
5954;BME280;3002;42.642;24.812;2022-11-04T14:58:53;96220.84;;;19.55;65.07
5954;BME280;3002;42.642;24.812;2022-11-04T15:01:19;96206.97;;;20.07;62.99
5954;BME280;3002;42.642;24.812;2022-11-04T15:03:45;96227.38;;;19.66;64.78
5954;BME280;3002;42.642;24.812;2022-11-04T15:06:12;96191.97;;;18.75;67.76
5954;BME280;3002;42.642;24.812;2022-11-04T15:08:43;96229.34;;;19.37;67.46
5954;BME280;3002;42.642;24.812;2022-11-04T15:11:12;96227.81;;;19.08;69.19
5954;BME280;3002;42.642;24.812;2022-11-04T15:13:47;96214.22;;;19.08;69.65
5954;BME280;3002;42.642;24.812;2022-11-04T15:16:17;96232.28;;;19.16;70.41
5954;BME280;3002;42.642;24.812;2022-11-04T15:18:43;96216.66;;;18.97;70.52
5954;BME280;3002;42.642;24.812;2022-11-04T15:21:11;96226.84;;;19.16;69.97
5954;BME280;3002;42.642;24.812;2022-11-04T15:23:41;96223.53;;;19.23;69.66
5954;BME280;3002;42.642;24.812;2022-11-04T15:26:28;96234.13;;;19.12;70.74
5954;BME280;3002;42.642;24.812;2022-11-04T15:28:58;96214.84;;;19.02;70.94
5954;BME280;3002;42.642;24.812;2022-11-04T15:31:30;96234.53;;;18.70;72.76
5954;BME280;3002;42.642;24.812;2022-11-04T15:33:58;96209.88;;;18.51;72.53
5954;BME280;3002;42.642;24.812;2022-11-04T15:36:31;96231.28;;;18.40;74.51
5954;BME280;3002;42.642;24.812;2022-11-04T15:38:59;96241.28;;;18.24;75.63
5954;BME280;3002;42.642;24.812;2022-11-04T15:41:28;96228.63;;;18.04;76.24
5954;BME280;3002;42.642;24.812;2022-11-04T15:44:22;96219.72;;;18.03;75.15
5954;BME280;3002;42.642;24.812;2022-11-04T15:46:51;96202.88;;;17.73;76.58
5954;BME280;3002;42.642;24.812;2022-11-04T15:49:23;96222.56;;;17.82;76.51
5954;BME280;3002;42.642;24.812;2022-11-04T15:51:50;96235.34;;;17.82;77.44
5954;BME280;3002;42.642;24.812;2022-11-04T15:54:24;96211.34;;;17.96;74.78